Главная страница
METAR-TAF:

METAR-TAF

Аэропорты :

Нуакшот, Мавритания

широта: 18-18-36N, долгота: 015-58-11W, высота над уровнем моря: 3 м

Текущие метеонаблюдения

Эта сводка был подготовлена 35 минут назад, в 18:00 UTC
Ветер 10 Узел от восточно-северо-восточный
Температура 35°C
Влажность 5%
Давление 1011 hPa
Видимость 10 км и более
Нет облачности ниже 1500 м, и нет кучево-дождевой облачности

METAR: GQNO 281800Z 07010KT CAVOK 35/M10 Q1011 NOSIG

Время: 18:35 (18:35 UTC)

Прогноз

Эта сводка был подготовлена 1 час и 35 минут назад, в 17:00 UTC
Прогноз действительный с 28-го 18 UTC до 29-го 24 UTC
Ветер 12 Узел от северный
Видимость: 8000 м
изменения
С 29-го 08 UTC до 29-го 10 UTC
Ветер 12 Узел от восточно-северо-восточный
изменения
С 29-го 17 UTC до 29-го 19 UTC
Ветер 12 Узел от северный

TAF: GQNO 281700Z 2818/2924 35012KT 8000 NSC BECMG 2908/2910 06012KT BECMG 2917/2919 36012KT

Метеонаблюдения и прогнозы для более 4000 аэропортов (сводки METAR и TAF).

Имеющиеся станции представлены на карте желтыми и красными точками.

Чтобы увидеть название станции, наведите на нее мышь.

Затем щелкните, чтобы увидеть метеонаблюдения и метеопрогнозы.

Управление картой: чтобы увеличить масштаб, щелкните зеленые кнопки с черным крестиком; чтобы уменьшить масштаб, щелкните зеленую кнопку с тире; для просмотра соседних карт щелкайте зеленые стрелки.


METAR-TAF: